createdAt,value
2022-09-06T00:01:17.150Z,18.99
2022-09-06T00:03:45.705Z,18.96
2022-09-06T00:06:15.458Z,18.92
2022-09-06T00:08:45.277Z,18.87
2022-09-06T00:11:13.949Z,18.84
2022-09-06T00:13:42.380Z,18.81
2022-09-06T00:16:13.413Z,18.80
2022-09-06T00:18:43.177Z,18.76
2022-09-06T00:21:16.799Z,18.74
2022-09-06T00:23:44.984Z,18.72
2022-09-06T00:26:13.640Z,18.69
2022-09-06T00:28:41.700Z,18.66
2022-09-06T00:31:11.749Z,18.64
2022-09-06T00:33:39.741Z,18.62
2022-09-06T00:36:09.948Z,18.58
2022-09-06T00:38:38.447Z,18.56
2022-09-06T00:41:07.842Z,18.53
2022-09-06T00:43:35.813Z,18.49
2022-09-06T00:46:04.671Z,18.47
2022-09-06T00:48:32.910Z,18.42
2022-09-06T00:51:03.235Z,18.39
2022-09-06T00:53:33.552Z,18.37
2022-09-06T00:56:02.026Z,18.32
2022-09-06T00:58:30.079Z,18.31
2022-09-06T01:00:57.899Z,18.29
2022-09-06T01:03:26.675Z,18.26
2022-09-06T01:06:01.569Z,18.24
2022-09-06T01:08:43.932Z,18.21
2022-09-06T01:11:26.285Z,18.18
2022-09-06T01:14:01.123Z,18.18
2022-09-06T01:16:37.249Z,18.18
2022-09-06T01:19:31.845Z,18.16
2022-09-06T01:22:13.538Z,18.15
2022-09-06T01:25:11.310Z,18.12
2022-09-06T01:28:11.171Z,18.09
2022-09-06T01:30:45.880Z,18.08
2022-09-06T01:33:21.295Z,18.08
2022-09-06T01:35:54.278Z,18.08
2022-09-06T01:38:22.275Z,18.07
2022-09-06T01:40:50.078Z,18.05
2022-09-06T01:43:27.381Z,18.02
2022-09-06T01:46:04.314Z,17.97
2022-09-06T01:48:47.622Z,17.92
2022-09-06T01:51:21.374Z,17.87
2022-09-06T01:54:16.189Z,17.81
2022-09-06T01:56:52.143Z,17.77
2022-09-06T01:59:36.559Z,17.74
2022-09-06T02:02:10.939Z,17.70
2022-09-06T02:04:45.997Z,17.66
2022-09-06T02:07:21.277Z,17.62
2022-09-06T02:09:53.181Z,17.60
2022-09-06T02:12:23.743Z,17.57
2022-09-06T02:14:57.908Z,17.56
2022-09-06T02:17:31.488Z,17.54
2022-09-06T02:20:03.527Z,17.53
2022-09-06T02:22:34.424Z,17.53
2022-09-06T02:25:04.305Z,17.50
2022-09-06T02:27:32.109Z,17.47
2022-09-06T02:30:02.992Z,17.46
2022-09-06T02:32:35.956Z,17.45
2022-09-06T02:35:09.775Z,17.45
2022-09-06T02:37:37.645Z,17.44
2022-09-06T02:40:06.233Z,17.44
2022-09-06T02:42:34.328Z,17.43
2022-09-06T02:45:05.151Z,17.39
2022-09-06T02:47:32.952Z,17.37
2022-09-06T02:50:00.844Z,17.35
2022-09-06T02:52:28.697Z,17.32
2022-09-06T02:54:56.570Z,17.31
2022-09-06T02:57:24.356Z,17.31
2022-09-06T02:59:52.138Z,17.30
2022-09-06T03:02:21.335Z,17.31
2022-09-06T03:04:49.215Z,17.31
2022-09-06T03:07:17.010Z,17.32
2022-09-06T03:09:44.840Z,17.31
2022-09-06T03:12:12.669Z,17.31
2022-09-06T03:14:41.275Z,17.31
2022-09-06T03:17:09.068Z,17.30
2022-09-06T03:19:38.242Z,17.30
2022-09-06T03:22:06.096Z,17.31
2022-09-06T03:24:33.896Z,17.30
2022-09-06T03:27:01.710Z,17.31
2022-09-06T03:29:29.500Z,17.32
2022-09-06T03:31:57.336Z,17.31
2022-09-06T03:34:25.132Z,17.30
2022-09-06T03:36:54.308Z,17.28
2022-09-06T03:39:22.248Z,17.28
2022-09-06T03:41:50.053Z,17.28
2022-09-06T03:44:17.840Z,17.28
2022-09-06T03:46:46.311Z,17.28
2022-09-06T03:49:14.100Z,17.28
2022-09-06T03:51:41.931Z,17.26
2022-09-06T03:54:11.362Z,17.27
2022-09-06T03:56:39.195Z,17.25
2022-09-06T03:59:07.067Z,17.25
2022-09-06T04:01:34.920Z,17.24
2022-09-06T04:04:03.058Z,17.23
2022-09-06T04:06:30.858Z,17.22
2022-09-06T04:08:58.671Z,17.23
2022-09-06T04:11:27.838Z,17.22
2022-09-06T04:13:55.645Z,17.22
2022-09-06T04:16:23.458Z,17.21
2022-09-06T04:18:51.325Z,17.19
2022-09-06T04:21:19.120Z,17.19
2022-09-06T04:23:46.912Z,17.19
2022-09-06T04:26:15.060Z,17.18
2022-09-06T04:28:44.204Z,17.17
2022-09-06T04:31:12.024Z,17.15
2022-09-06T04:33:39.943Z,17.15
2022-09-06T04:36:12.077Z,17.16
2022-09-06T04:38:41.957Z,17.15
2022-09-06T04:41:10.944Z,17.13
2022-09-06T04:43:38.767Z,17.13
2022-09-06T04:46:12.879Z,17.13
2022-09-06T04:48:40.681Z,17.13
2022-09-06T04:51:08.495Z,17.15
2022-09-06T04:53:36.269Z,17.15
2022-09-06T04:56:04.369Z,17.17
2022-09-06T04:58:32.560Z,17.17
2022-09-06T05:01:00.407Z,17.19
2022-09-06T05:03:29.642Z,17.22
2022-09-06T05:06:08.609Z,17.26
2022-09-06T05:08:38.396Z,17.27
2022-09-06T05:11:07.333Z,17.30
2022-09-06T05:13:36.613Z,17.31
2022-09-06T05:16:06.609Z,17.32
2022-09-06T05:18:36.451Z,17.32
2022-09-06T05:21:04.599Z,17.34
2022-09-06T05:23:32.426Z,17.33
2022-09-06T05:26:00.220Z,17.33
2022-09-06T05:28:28.104Z,17.35
2022-09-06T05:31:06.362Z,17.37
2022-09-06T05:33:35.605Z,17.39
2022-09-06T05:36:04.078Z,17.42
2022-09-06T05:38:32.013Z,17.44
2022-09-06T05:40:59.904Z,17.48
2022-09-06T05:43:27.701Z,17.49
2022-09-06T05:45:55.573Z,17.53
2022-09-06T05:48:23.462Z,17.56
2022-09-06T05:51:02.530Z,17.59
2022-09-06T05:53:35.227Z,17.62
2022-09-06T05:56:03.396Z,17.64
2022-09-06T05:58:31.417Z,17.65
2022-09-06T06:01:06.530Z,17.66
2022-09-06T06:03:34.438Z,17.68
2022-09-06T06:06:03.590Z,17.72
2022-09-06T06:08:31.408Z,17.75
2022-09-06T06:11:01.267Z,17.80
2022-09-06T06:13:34.724Z,17.83
2022-09-06T06:16:03.269Z,17.86
2022-09-06T06:18:31.116Z,17.91
2022-09-06T06:21:10.920Z,17.95
2022-09-06T06:23:39.153Z,18.00
2022-09-06T06:26:07.556Z,18.04
2022-09-06T06:28:35.641Z,18.08
2022-09-06T06:31:03.727Z,18.11
2022-09-06T06:33:32.438Z,18.16
2022-09-06T06:36:01.612Z,18.20
2022-09-06T06:38:35.305Z,18.23
2022-09-06T06:41:06.538Z,18.29
2022-09-06T06:43:37.801Z,18.33
2022-09-06T06:46:06.642Z,18.37
2022-09-06T06:48:34.499Z,18.41
2022-09-06T06:51:02.838Z,18.45
2022-09-06T06:53:30.663Z,18.50
2022-09-06T06:56:00.084Z,18.56
2022-09-06T06:58:28.049Z,18.64
2022-09-06T07:00:56.031Z,18.74
2022-09-06T07:03:23.929Z,18.86
2022-09-06T07:08:40.044Z,19.09
2022-09-06T07:11:10.971Z,19.18
2022-09-06T07:13:38.988Z,19.29
2022-09-06T07:16:12.169Z,19.43
2022-09-06T07:18:42.127Z,19.55
2022-09-06T07:26:39.041Z,19.83
2022-09-06T07:29:08.750Z,19.88
2022-09-06T07:34:26.519Z,19.98
2022-09-06T07:36:54.520Z,20.04
2022-09-06T07:39:22.678Z,20.08
2022-09-06T07:41:52.203Z,20.14
2022-09-06T07:44:20.035Z,20.19
2022-09-06T07:46:47.872Z,20.22
2022-09-06T07:49:15.713Z,20.25
2022-09-06T07:51:43.818Z,20.28
2022-09-06T07:54:30.375Z,20.33
2022-09-06T07:56:59.828Z,20.36
2022-09-06T07:59:27.651Z,20.40
2022-09-06T08:01:55.610Z,20.44
2022-09-06T08:04:23.474Z,20.48
2022-09-06T08:09:40.586Z,20.55
2022-09-06T08:12:09.972Z,20.60
2022-09-06T08:14:37.809Z,20.67
2022-09-06T08:17:05.669Z,20.73
2022-09-06T08:19:34.392Z,20.80
2022-09-06T08:22:02.342Z,20.85
2022-09-06T08:24:30.439Z,20.91
2022-09-06T08:26:58.227Z,20.98
2022-09-06T08:29:27.923Z,21.06
2022-09-06T08:31:55.873Z,21.13
2022-09-06T08:34:23.675Z,21.21
2022-09-06T08:36:51.524Z,21.27
2022-09-06T08:39:19.483Z,21.36
2022-09-06T08:41:51.934Z,21.44
2022-09-06T08:47:14.457Z,21.55
2022-09-06T08:49:45.029Z,21.58
2022-09-06T08:52:24.689Z,21.61
2022-09-06T08:55:00.411Z,21.63
2022-09-06T08:57:41.938Z,21.66
2022-09-06T09:00:12.975Z,21.68
2022-09-06T09:02:46.424Z,21.69
2022-09-06T09:05:23.947Z,21.79
2022-09-06T09:08:01.590Z,21.90
2022-09-06T09:10:32.546Z,21.96
2022-09-06T09:13:05.768Z,22.00
2022-09-06T09:15:40.229Z,22.07
2022-09-06T09:18:09.813Z,22.11
2022-09-06T09:20:39.132Z,22.15
2022-09-06T09:23:06.958Z,22.22
2022-09-06T09:25:35.695Z,22.28
2022-09-06T09:28:03.842Z,22.33
2022-09-06T09:30:49.400Z,22.36
2022-09-06T09:33:28.759Z,22.40
2022-09-06T09:35:59.258Z,22.43
2022-09-06T09:38:28.844Z,22.46
2022-09-06T09:40:58.590Z,22.52
2022-09-06T09:43:29.497Z,22.63
2022-09-06T09:46:16.152Z,22.77
2022-09-06T09:49:00.998Z,22.89
2022-09-06T09:51:30.224Z,23.02
2022-09-06T09:53:59.741Z,23.12
2022-09-06T09:56:33.785Z,23.25
2022-09-06T10:01:34.087Z,23.45
2022-09-06T10:07:10.121Z,23.80
2022-09-06T10:09:40.650Z,23.93
2022-09-06T10:12:08.795Z,24.04
2022-09-06T10:14:43.107Z,24.16
2022-09-06T10:17:19.667Z,24.29
2022-09-06T10:19:49.055Z,24.38
2022-09-06T10:22:30.922Z,24.45
2022-09-06T10:25:36.636Z,24.53
2022-09-06T10:28:31.165Z,24.54
2022-09-06T10:31:47.501Z,24.54
2022-09-06T10:34:48.714Z,24.58
2022-09-06T10:37:36.940Z,24.73
2022-09-06T10:40:07.989Z,24.85
2022-09-06T10:42:43.727Z,24.97
2022-09-06T10:45:28.315Z,25.11
2022-09-06T10:47:59.437Z,25.28
2022-09-06T10:50:33.919Z,25.43
2022-09-06T10:53:10.256Z,25.49
2022-09-06T10:55:41.157Z,25.56
2022-09-06T11:00:47.569Z,25.47
2022-09-06T11:06:14.020Z,25.57
2022-09-06T11:08:47.478Z,25.70
2022-09-06T11:11:21.317Z,25.79
2022-09-06T11:13:49.207Z,25.84
2022-09-06T11:16:23.502Z,25.97
2022-09-06T11:18:58.923Z,26.10
2022-09-06T11:22:00.905Z,26.24
2022-09-06T11:24:45.297Z,26.38
2022-09-06T11:27:18.709Z,26.48
2022-09-06T11:29:52.378Z,26.61
2022-09-06T11:32:34.023Z,26.69
2022-09-06T11:35:05.612Z,26.77
2022-09-06T11:37:37.059Z,26.85
2022-09-06T11:40:29.177Z,26.91
2022-09-06T11:43:18.912Z,27.02
2022-09-06T11:45:49.974Z,27.09
2022-09-06T11:48:35.098Z,27.18
2022-09-06T11:51:07.621Z,27.25
2022-09-06T11:53:57.712Z,27.34
2022-09-06T11:56:31.005Z,27.40
2022-09-06T11:59:03.784Z,27.37
2022-09-06T12:01:40.869Z,27.40
2022-09-06T12:04:10.720Z,27.43
2022-09-06T12:06:41.434Z,27.47
2022-09-06T12:09:33.297Z,27.57
2022-09-06T12:12:03.677Z,27.69
2022-09-06T12:14:39.628Z,27.76
2022-09-06T12:17:28.939Z,27.83
2022-09-06T12:20:06.243Z,27.92
2022-09-06T12:23:04.669Z,28.04
2022-09-06T12:26:00.206Z,28.08
2022-09-06T12:28:41.043Z,28.24
2022-09-06T12:31:43.518Z,28.40
2022-09-06T12:34:15.335Z,28.54
2022-09-06T12:36:56.430Z,28.66
2022-09-06T12:39:25.055Z,28.67
2022-09-06T12:41:56.942Z,28.67
2022-09-06T12:44:32.568Z,28.70
2022-09-06T12:47:07.567Z,28.71
2022-09-06T12:49:35.814Z,28.77
2022-09-06T12:52:08.761Z,28.81
2022-09-06T12:54:45.118Z,28.88
2022-09-06T12:57:14.668Z,28.94
2022-09-06T12:59:51.245Z,28.99
2022-09-06T13:02:25.113Z,29.01
2022-09-06T13:04:57.528Z,29.05
2022-09-06T13:07:27.080Z,29.06
2022-09-06T13:09:57.427Z,29.08
2022-09-06T13:12:27.786Z,29.15
2022-09-06T13:14:59.418Z,29.24
2022-09-06T13:17:29.306Z,29.36
2022-09-06T13:19:59.867Z,29.48
2022-09-06T13:22:43.223Z,29.62
2022-09-06T13:25:25.904Z,29.68
2022-09-06T13:27:57.729Z,29.80
2022-09-06T13:30:38.553Z,29.90
2022-09-06T13:33:08.267Z,30.03
2022-09-06T13:35:39.029Z,30.18
2022-09-06T13:38:31.473Z,30.27
2022-09-06T13:41:16.736Z,30.16
2022-09-06T13:43:47.599Z,29.98
2022-09-06T13:46:16.847Z,29.77
2022-09-06T13:48:45.305Z,29.84
2022-09-06T13:51:13.702Z,29.93
2022-09-06T13:53:41.834Z,30.10
2022-09-06T13:56:09.667Z,30.25
2022-09-06T13:58:37.794Z,30.46
2022-09-06T14:01:08.654Z,30.51
2022-09-06T14:03:41.738Z,30.56
2022-09-06T14:06:10.886Z,30.68
2022-09-06T14:09:03.383Z,30.81
2022-09-06T14:11:27.428Z,30.90
2022-09-06T14:13:55.314Z,30.96
2022-09-06T14:16:23.321Z,31.12
2022-09-06T14:18:53.038Z,31.17
2022-09-06T14:21:21.426Z,31.24
2022-09-06T14:23:52.226Z,31.21
2022-09-06T14:26:21.506Z,31.18
2022-09-06T14:28:49.606Z,31.21
2022-09-06T14:31:19.308Z,31.31
2022-09-06T14:33:47.264Z,31.33
2022-09-06T14:36:18.623Z,31.41
2022-09-06T14:38:47.986Z,31.47
2022-09-06T14:41:17.745Z,31.40
2022-09-06T14:43:49.849Z,31.19
2022-09-06T14:46:19.856Z,31.00
2022-09-06T14:48:47.888Z,30.81
2022-09-06T14:51:21.991Z,30.74
2022-09-06T14:53:52.119Z,30.77
2022-09-06T14:56:21.422Z,30.72
2022-09-06T14:58:49.439Z,30.72
2022-09-06T15:01:19.362Z,30.73
2022-09-06T15:03:51.471Z,30.74
2022-09-06T15:06:22.444Z,30.72
2022-09-06T15:08:53.627Z,30.65
2022-09-06T15:11:33.216Z,30.55
2022-09-06T15:14:02.068Z,30.46
2022-09-06T15:16:29.991Z,30.37
2022-09-06T15:18:58.234Z,30.30
2022-09-06T15:21:27.672Z,30.24
2022-09-06T15:23:55.603Z,30.18
2022-09-06T15:26:23.563Z,30.08
2022-09-06T15:28:51.930Z,29.98
2022-09-06T15:31:20.090Z,29.88
2022-09-06T15:33:48.926Z,29.67
2022-09-06T15:36:18.608Z,29.50
2022-09-06T15:38:49.731Z,29.29
2022-09-06T15:41:20.100Z,29.09
2022-09-06T15:43:50.491Z,28.84
2022-09-06T15:46:21.107Z,28.68
2022-09-06T15:48:51.284Z,28.50
2022-09-06T15:51:21.692Z,28.34
2022-09-06T15:53:51.072Z,28.22
2022-09-06T15:56:19.636Z,28.12
2022-09-06T15:58:48.014Z,28.02
2022-09-06T16:01:17.666Z,27.95
2022-09-06T16:03:47.208Z,27.88
2022-09-06T16:08:58.363Z,27.71
2022-09-06T16:11:26.946Z,27.62
2022-09-06T16:13:55.240Z,27.55
2022-09-06T16:16:23.534Z,27.46
2022-09-06T16:18:53.101Z,27.39
2022-09-06T16:21:23.984Z,27.32
2022-09-06T16:23:55.087Z,27.31
2022-09-06T16:26:24.019Z,27.32
2022-09-06T16:28:53.513Z,27.33
2022-09-06T16:31:23.325Z,27.35
2022-09-06T16:33:51.628Z,27.37
2022-09-06T16:36:19.982Z,27.37
2022-09-06T16:38:48.469Z,27.38
2022-09-06T16:41:20.489Z,27.36
2022-09-06T16:43:50.078Z,27.33
2022-09-06T16:46:18.357Z,27.28
2022-09-06T16:48:52.180Z,27.22
2022-09-06T16:51:21.858Z,27.16
2022-09-06T16:53:50.500Z,27.07
2022-09-06T16:56:21.833Z,26.99
2022-09-06T16:58:53.239Z,26.89
2022-09-06T17:01:21.716Z,26.80
2022-09-06T17:03:49.727Z,26.74
2022-09-06T17:06:18.732Z,26.63
2022-09-06T17:08:46.706Z,26.52
2022-09-06T17:11:16.795Z,26.45
2022-09-06T17:13:48.146Z,26.34
2022-09-06T17:16:33.699Z,26.26
2022-09-06T17:19:02.602Z,26.16
2022-09-06T17:21:31.032Z,26.08
2022-09-06T17:24:02.913Z,26.00
2022-09-06T17:26:30.755Z,25.91
2022-09-06T17:29:00.524Z,25.83
2022-09-06T17:31:28.784Z,25.79
2022-09-06T17:33:58.465Z,25.72
2022-09-06T17:36:30.435Z,25.65
2022-09-06T17:39:03.429Z,25.54
2022-09-06T17:41:36.634Z,25.47
2022-09-06T17:44:07.153Z,25.40
2022-09-06T17:46:35.227Z,25.31
2022-09-06T17:49:04.936Z,25.22
2022-09-06T17:51:33.526Z,25.14
2022-09-06T17:54:01.604Z,25.05
2022-09-06T17:56:30.366Z,24.97
2022-09-06T17:59:00.078Z,24.88
2022-09-06T18:01:32.193Z,24.79
2022-09-06T18:04:00.675Z,24.70
2022-09-06T18:06:30.439Z,24.60
2022-09-06T18:09:00.998Z,24.49
2022-09-06T18:11:31.856Z,24.40
2022-09-06T18:14:01.886Z,24.31
2022-09-06T18:16:32.338Z,24.19
2022-09-06T18:19:04.488Z,24.09
2022-09-06T18:21:35.251Z,23.98
2022-09-06T18:24:04.560Z,23.85
2022-09-06T18:26:32.643Z,23.74
2022-09-06T18:29:01.123Z,23.63
2022-09-06T18:31:29.637Z,23.53
2022-09-06T18:33:59.872Z,23.45
2022-09-06T18:36:32.016Z,23.40
2022-09-06T18:39:02.744Z,23.36
2022-09-06T18:41:48.497Z,23.32
2022-09-06T18:44:17.861Z,23.26
2022-09-06T18:46:46.141Z,23.21
2022-09-06T18:49:15.843Z,23.16
2022-09-06T18:51:44.685Z,23.13
2022-09-06T18:54:13.152Z,23.09
2022-09-06T18:56:41.171Z,23.06
2022-09-06T18:59:10.788Z,23.01
2022-09-06T19:01:39.038Z,22.97
2022-09-06T19:04:08.028Z,22.96
2022-09-06T19:06:38.225Z,22.92
2022-09-06T19:09:08.594Z,22.89
2022-09-06T19:11:36.692Z,22.90
2022-09-06T19:14:05.714Z,22.89
2022-09-06T19:16:33.719Z,22.86
2022-09-06T19:19:06.735Z,22.84
2022-09-06T19:21:39.378Z,22.84
2022-09-06T19:24:11.672Z,22.84
2022-09-06T19:26:42.076Z,22.83
2022-09-06T19:29:14.549Z,22.83
2022-09-06T19:31:44.869Z,22.82
2022-09-06T19:34:15.285Z,22.80
2022-09-06T19:36:44.913Z,22.77
2022-09-06T19:39:17.236Z,22.74
2022-09-06T19:41:46.811Z,22.72
2022-09-06T19:44:16.362Z,22.69
2022-09-06T19:46:46.737Z,22.63
2022-09-06T19:49:16.492Z,22.55
2022-09-06T19:51:46.402Z,22.49
2022-09-06T19:54:16.392Z,22.44
2022-09-06T19:56:45.138Z,22.39
2022-09-06T19:59:14.455Z,22.34
2022-09-06T20:01:45.723Z,22.30
2022-09-06T20:04:15.755Z,22.24
2022-09-06T20:06:44.557Z,22.21
2022-09-06T20:09:12.688Z,22.16
2022-09-06T20:11:42.870Z,22.12
2022-09-06T20:14:11.152Z,22.09
2022-09-06T20:16:41.923Z,22.06
2022-09-06T20:19:11.949Z,22.02
2022-09-06T20:21:39.993Z,21.98
2022-09-06T20:24:08.133Z,21.93
2022-09-06T20:26:36.486Z,21.89
2022-09-06T20:29:06.602Z,21.85
2022-09-06T20:31:36.768Z,21.81
2022-09-06T20:34:06.485Z,21.76
2022-09-06T20:36:34.753Z,21.71
2022-09-06T20:39:03.207Z,21.67
2022-09-06T20:41:32.251Z,21.62
2022-09-06T20:44:01.201Z,21.57
2022-09-06T20:46:32.703Z,21.54
2022-09-06T20:49:04.334Z,21.50
2022-09-06T20:51:34.037Z,21.49
2022-09-06T20:54:03.138Z,21.45
2022-09-06T20:56:34.893Z,21.44
2022-09-06T20:59:04.755Z,21.42
2022-09-06T21:01:35.755Z,21.36
2022-09-06T21:04:05.943Z,21.30
2022-09-06T21:06:35.655Z,21.22
2022-09-06T21:09:04.994Z,21.16
2022-09-06T21:11:33.179Z,21.15
2022-09-06T21:14:01.588Z,21.11
2022-09-06T21:16:30.366Z,21.08
2022-09-06T21:19:02.896Z,21.07
2022-09-06T21:21:32.698Z,21.09
2022-09-06T21:24:01.427Z,21.04
2022-09-06T21:26:29.536Z,21.02
2022-09-06T21:28:57.583Z,20.96
2022-09-06T21:31:26.979Z,20.93
2022-09-06T21:33:57.786Z,20.88
2022-09-06T21:36:29.831Z,20.85
2022-09-06T21:38:59.174Z,20.81
2022-09-06T21:41:28.314Z,20.75
2022-09-06T21:43:58.638Z,20.68
2022-09-06T21:46:32.619Z,20.60
2022-09-06T21:49:02.862Z,20.53
2022-09-06T21:51:32.629Z,20.48
2022-09-06T21:54:03.399Z,20.42
2022-09-06T21:56:31.607Z,20.35
2022-09-06T21:58:59.952Z,20.27
2022-09-06T22:01:31.740Z,20.20
2022-09-06T22:06:37.703Z,20.07
2022-09-06T22:09:10.806Z,20.00
2022-09-06T22:11:40.681Z,19.94
2022-09-06T22:14:11.289Z,19.89
2022-09-06T22:16:40.340Z,19.85
2022-09-06T22:19:09.175Z,19.80
2022-09-06T22:21:39.528Z,19.76
2022-09-06T22:24:11.563Z,19.70
2022-09-06T22:26:41.763Z,19.66
2022-09-06T22:29:12.130Z,19.59
2022-09-06T22:31:40.561Z,19.56
2022-09-06T22:34:08.559Z,19.50
2022-09-06T22:36:37.826Z,19.45
2022-09-06T22:39:06.052Z,19.41
2022-09-06T22:41:34.985Z,19.38
2022-09-06T22:44:04.294Z,19.37
2022-09-06T22:46:32.593Z,19.37
2022-09-06T22:49:00.502Z,19.38
2022-09-06T22:51:28.361Z,19.40
2022-09-06T22:53:57.628Z,19.41
2022-09-06T22:56:25.515Z,19.41
2022-09-06T22:58:53.477Z,19.42
2022-09-06T23:01:21.445Z,19.44
2022-09-06T23:03:50.808Z,19.44
2022-09-06T23:06:19.821Z,19.46
2022-09-06T23:08:47.782Z,19.47
2022-09-06T23:11:19.759Z,19.47
2022-09-06T23:13:47.702Z,19.45
2022-09-06T23:16:18.234Z,19.41
2022-09-06T23:18:46.682Z,19.36
2022-09-06T23:21:16.899Z,19.31
2022-09-06T23:23:46.030Z,19.26
2022-09-06T23:26:16.181Z,19.24
2022-09-06T23:28:46.361Z,19.20
2022-09-06T23:31:16.152Z,19.16
2022-09-06T23:33:44.432Z,19.14
2022-09-06T23:36:14.517Z,19.10
2022-09-06T23:38:43.190Z,19.07
2022-09-06T23:41:11.373Z,19.02
2022-09-06T23:43:39.918Z,18.97
2022-09-06T23:46:10.241Z,18.92
2022-09-06T23:48:38.326Z,18.89
2022-09-06T23:51:06.328Z,18.86
2022-09-06T23:53:34.488Z,18.81
2022-09-06T23:56:02.679Z,18.79
2022-09-06T23:58:31.023Z,18.76
